sensor_id;sensor_type;location;lat;lon;timestamp;temperature;humidity
1083;DHT22;530;51.448;7.238;2023-07-13T00:00:18;18.30;99.90
1083;DHT22;530;51.448;7.238;2023-07-13T00:02:44;18.20;99.90
1083;DHT22;530;51.448;7.238;2023-07-13T00:05:09;18.20;99.90
1083;DHT22;530;51.448;7.238;2023-07-13T00:07:36;18.20;99.90
1083;DHT22;530;51.448;7.238;2023-07-13T00:10:02;18.20;99.90
1083;DHT22;530;51.448;7.238;2023-07-13T00:12:34;18.10;99.90
1083;DHT22;530;51.448;7.238;2023-07-13T00:15:03;18.20;99.90
1083;DHT22;530;51.448;7.238;2023-07-13T00:17:29;18.10;99.90
1083;DHT22;530;51.448;7.238;2023-07-13T00:19:56;18.10;99.90
1083;DHT22;530;51.448;7.238;2023-07-13T00:22:23;18.10;99.90
1083;DHT22;530;51.448;7.238;2023-07-13T00:24:52;18.10;99.90
1083;DHT22;530;51.448;7.238;2023-07-13T00:27:19;18.10;99.90
1083;DHT22;530;51.448;7.238;2023-07-13T00:29:44;18.10;99.90
1083;DHT22;530;51.448;7.238;2023-07-13T00:32:11;18.00;99.90
1083;DHT22;530;51.448;7.238;2023-07-13T00:34:38;17.80;99.90
1083;DHT22;530;51.448;7.238;2023-07-13T00:37:04;17.80;99.90
1083;DHT22;530;51.448;7.238;2023-07-13T00:39:32;17.80;99.90
1083;DHT22;530;51.448;7.238;2023-07-13T00:41:58;17.70;99.90
1083;DHT22;530;51.448;7.238;2023-07-13T00:44:24;17.70;99.90
1083;DHT22;530;51.448;7.238;2023-07-13T00:46:50;17.70;99.90
1083;DHT22;530;51.448;7.238;2023-07-13T00:49:19;17.60;99.90
1083;DHT22;530;51.448;7.238;2023-07-13T00:51:53;17.60;99.90
1083;DHT22;530;51.448;7.238;2023-07-13T00:54:32;17.50;99.90
1083;DHT22;530;51.448;7.238;2023-07-13T00:57:02;17.50;99.90
1083;DHT22;530;51.448;7.238;2023-07-13T00:59:28;17.50;99.90
1083;DHT22;530;51.448;7.238;2023-07-13T01:01:54;17.40;99.90
1083;DHT22;530;51.448;7.238;2023-07-13T01:04:20;17.40;99.90
1083;DHT22;530;51.448;7.238;2023-07-13T01:06:48;17.30;99.90
1083;DHT22;530;51.448;7.238;2023-07-13T01:09:15;17.30;99.90
1083;DHT22;530;51.448;7.238;2023-07-13T01:11:41;17.30;99.90
1083;DHT22;530;51.448;7.238;2023-07-13T01:14:08;17.30;99.90
1083;DHT22;530;51.448;7.238;2023-07-13T01:16:35;17.40;99.90
1083;DHT22;530;51.448;7.238;2023-07-13T01:19:05;17.40;99.90
1083;DHT22;530;51.448;7.238;2023-07-13T01:21:33;17.40;99.90
1083;DHT22;530;51.448;7.238;2023-07-13T01:24:00;17.40;99.90
1083;DHT22;530;51.448;7.238;2023-07-13T01:26:25;17.40;99.90
1083;DHT22;530;51.448;7.238;2023-07-13T01:28:52;17.40;99.90
1083;DHT22;530;51.448;7.238;2023-07-13T01:31:18;17.40;99.90
1083;DHT22;530;51.448;7.238;2023-07-13T01:33:43;17.40;99.90
1083;DHT22;530;51.448;7.238;2023-07-13T01:36:10;17.40;99.90
1083;DHT22;530;51.448;7.238;2023-07-13T01:38:37;17.40;99.90
1083;DHT22;530;51.448;7.238;2023-07-13T01:41:03;17.40;99.90
1083;DHT22;530;51.448;7.238;2023-07-13T01:43:29;17.40;99.90
1083;DHT22;530;51.448;7.238;2023-07-13T01:45:55;17.30;99.90
1083;DHT22;530;51.448;7.238;2023-07-13T01:48:20;17.20;99.90
1083;DHT22;530;51.448;7.238;2023-07-13T01:50:47;17.20;99.90
1083;DHT22;530;51.448;7.238;2023-07-13T01:53:13;17.10;99.90
1083;DHT22;530;51.448;7.238;2023-07-13T01:55:39;17.10;99.90
1083;DHT22;530;51.448;7.238;2023-07-13T01:58:05;17.00;99.90
1083;DHT22;530;51.448;7.238;2023-07-13T02:00:31;17.00;99.90
1083;DHT22;530;51.448;7.238;2023-07-13T02:02:57;17.00;99.90
1083;DHT22;530;51.448;7.238;2023-07-13T02:05:23;17.10;99.90
1083;DHT22;530;51.448;7.238;2023-07-13T02:07:48;17.10;99.90
1083;DHT22;530;51.448;7.238;2023-07-13T02:10:15;17.00;99.90
1083;DHT22;530;51.448;7.238;2023-07-13T02:12:41;17.00;99.90
1083;DHT22;530;51.448;7.238;2023-07-13T02:15:07;17.00;99.90
1083;DHT22;530;51.448;7.238;2023-07-13T02:17:35;17.00;99.90
1083;DHT22;530;51.448;7.238;2023-07-13T02:20:01;17.00;99.90
1083;DHT22;530;51.448;7.238;2023-07-13T02:22:27;17.00;99.90
1083;DHT22;530;51.448;7.238;2023-07-13T02:24:53;17.00;99.90
1083;DHT22;530;51.448;7.238;2023-07-13T02:27:19;16.90;99.90
1083;DHT22;530;51.448;7.238;2023-07-13T02:29:45;16.90;99.90
1083;DHT22;530;51.448;7.238;2023-07-13T02:32:11;16.90;99.90
1083;DHT22;530;51.448;7.238;2023-07-13T02:34:36;16.90;99.90
1083;DHT22;530;51.448;7.238;2023-07-13T02:37:03;17.00;99.90
1083;DHT22;530;51.448;7.238;2023-07-13T02:39:28;17.00;99.90
1083;DHT22;530;51.448;7.238;2023-07-13T02:41:54;17.00;99.90
1083;DHT22;530;51.448;7.238;2023-07-13T02:44:20;16.90;99.90
1083;DHT22;530;51.448;7.238;2023-07-13T02:46:45;16.80;99.90
1083;DHT22;530;51.448;7.238;2023-07-13T02:49:11;16.80;99.90
1083;DHT22;530;51.448;7.238;2023-07-13T02:51:37;16.80;99.90
1083;DHT22;530;51.448;7.238;2023-07-13T02:54:03;16.80;99.90
1083;DHT22;530;51.448;7.238;2023-07-13T02:56:31;16.80;99.90
1083;DHT22;530;51.448;7.238;2023-07-13T02:58:57;16.80;99.90
1083;DHT22;530;51.448;7.238;2023-07-13T03:01:24;16.80;99.90
1083;DHT22;530;51.448;7.238;2023-07-13T03:03:51;16.80;99.90
1083;DHT22;530;51.448;7.238;2023-07-13T03:06:17;16.80;99.90
1083;DHT22;530;51.448;7.238;2023-07-13T03:08:43;16.70;99.90
1083;DHT22;530;51.448;7.238;2023-07-13T03:11:15;16.70;99.90
1083;DHT22;530;51.448;7.238;2023-07-13T03:13:42;16.60;99.90
1083;DHT22;530;51.448;7.238;2023-07-13T03:16:09;16.60;99.90
1083;DHT22;530;51.448;7.238;2023-07-13T03:18:35;16.60;99.90
1083;DHT22;530;51.448;7.238;2023-07-13T03:21:01;16.60;99.90
1083;DHT22;530;51.448;7.238;2023-07-13T03:23:27;16.60;99.90
1083;DHT22;530;51.448;7.238;2023-07-13T03:28:28;16.60;99.90
1083;DHT22;530;51.448;7.238;2023-07-13T03:31:08;16.50;99.90
1083;DHT22;530;51.448;7.238;2023-07-13T03:33:35;16.50;99.90
1083;DHT22;530;51.448;7.238;2023-07-13T03:36:01;16.30;99.90
1083;DHT22;530;51.448;7.238;2023-07-13T03:38:27;16.30;99.90
1083;DHT22;530;51.448;7.238;2023-07-13T03:40:53;16.40;99.90
1083;DHT22;530;51.448;7.238;2023-07-13T03:43:19;16.40;99.90
1083;DHT22;530;51.448;7.238;2023-07-13T03:45:46;16.40;99.90
1083;DHT22;530;51.448;7.238;2023-07-13T03:48:12;16.40;99.90
1083;DHT22;530;51.448;7.238;2023-07-13T03:50:37;16.30;99.90
1083;DHT22;530;51.448;7.238;2023-07-13T03:53:04;16.40;99.90
1083;DHT22;530;51.448;7.238;2023-07-13T03:55:30;16.40;99.90
1083;DHT22;530;51.448;7.238;2023-07-13T04:00:45;16.50;99.90
1083;DHT22;530;51.448;7.238;2023-07-13T04:03:11;16.50;99.90
1083;DHT22;530;51.448;7.238;2023-07-13T04:05:37;16.50;99.90
1083;DHT22;530;51.448;7.238;2023-07-13T04:08:06;16.40;99.90
1083;DHT22;530;51.448;7.238;2023-07-13T04:10:32;16.40;99.90
1083;DHT22;530;51.448;7.238;2023-07-13T04:12:57;16.40;99.90
1083;DHT22;530;51.448;7.238;2023-07-13T04:15:23;16.50;99.90
1083;DHT22;530;51.448;7.238;2023-07-13T04:17:49;16.40;99.90
1083;DHT22;530;51.448;7.238;2023-07-13T04:20:15;16.50;99.90
1083;DHT22;530;51.448;7.238;2023-07-13T04:22:40;16.50;99.90
1083;DHT22;530;51.448;7.238;2023-07-13T04:25:06;16.50;99.90
1083;DHT22;530;51.448;7.238;2023-07-13T04:27:32;16.50;99.90
1083;DHT22;530;51.448;7.238;2023-07-13T04:29:58;16.60;99.90
1083;DHT22;530;51.448;7.238;2023-07-13T04:32:23;16.70;99.90
1083;DHT22;530;51.448;7.238;2023-07-13T04:34:49;16.70;99.90
1083;DHT22;530;51.448;7.238;2023-07-13T04:37:20;16.80;99.90
1083;DHT22;530;51.448;7.238;2023-07-13T04:39:46;16.70;99.90
1083;DHT22;530;51.448;7.238;2023-07-13T04:42:12;16.70;99.90
1083;DHT22;530;51.448;7.238;2023-07-13T04:44:38;16.80;99.90
1083;DHT22;530;51.448;7.238;2023-07-13T04:47:03;16.80;99.90
1083;DHT22;530;51.448;7.238;2023-07-13T04:49:29;16.80;99.90
1083;DHT22;530;51.448;7.238;2023-07-13T04:51:55;16.80;99.90
1083;DHT22;530;51.448;7.238;2023-07-13T04:54:21;16.80;99.90
1083;DHT22;530;51.448;7.238;2023-07-13T04:56:47;16.80;99.90
1083;DHT22;530;51.448;7.238;2023-07-13T04:59:13;16.90;99.90
1083;DHT22;530;51.448;7.238;2023-07-13T05:01:38;16.90;99.90
1083;DHT22;530;51.448;7.238;2023-07-13T05:04:06;17.00;99.90
1083;DHT22;530;51.448;7.238;2023-07-13T05:06:31;17.10;99.90
1083;DHT22;530;51.448;7.238;2023-07-13T05:08:57;17.10;99.90
1083;DHT22;530;51.448;7.238;2023-07-13T05:11:23;17.20;99.90
1083;DHT22;530;51.448;7.238;2023-07-13T05:13:49;17.20;99.90
1083;DHT22;530;51.448;7.238;2023-07-13T05:16:15;17.20;99.90
1083;DHT22;530;51.448;7.238;2023-07-13T05:18:41;17.30;99.90
1083;DHT22;530;51.448;7.238;2023-07-13T05:21:08;17.30;99.90
1083;DHT22;530;51.448;7.238;2023-07-13T05:23:35;17.40;99.90
1083;DHT22;530;51.448;7.238;2023-07-13T05:26:02;17.40;99.90
1083;DHT22;530;51.448;7.238;2023-07-13T05:28:29;17.30;99.90
1083;DHT22;530;51.448;7.238;2023-07-13T05:30:55;17.40;99.90
1083;DHT22;530;51.448;7.238;2023-07-13T05:33:21;17.40;99.90
1083;DHT22;530;51.448;7.238;2023-07-13T05:35:47;17.40;99.90
1083;DHT22;530;51.448;7.238;2023-07-13T05:38:13;17.50;99.90
1083;DHT22;530;51.448;7.238;2023-07-13T05:40:39;17.50;99.90
1083;DHT22;530;51.448;7.238;2023-07-13T05:43:05;17.60;99.90
1083;DHT22;530;51.448;7.238;2023-07-13T05:45:30;17.60;99.90
1083;DHT22;530;51.448;7.238;2023-07-13T05:47:56;17.60;99.90
1083;DHT22;530;51.448;7.238;2023-07-13T05:50:22;17.60;99.90
1083;DHT22;530;51.448;7.238;2023-07-13T05:52:47;17.60;99.90
1083;DHT22;530;51.448;7.238;2023-07-13T05:55:14;17.60;99.90
1083;DHT22;530;51.448;7.238;2023-07-13T05:57:40;17.60;99.90
1083;DHT22;530;51.448;7.238;2023-07-13T06:00:06;17.50;99.90
1083;DHT22;530;51.448;7.238;2023-07-13T06:02:32;17.60;99.90
1083;DHT22;530;51.448;7.238;2023-07-13T06:04:58;17.60;99.90
1083;DHT22;530;51.448;7.238;2023-07-13T06:07:24;17.70;99.90
1083;DHT22;530;51.448;7.238;2023-07-13T06:09:50;17.80;99.90
1083;DHT22;530;51.448;7.238;2023-07-13T06:12:15;17.80;99.90
1083;DHT22;530;51.448;7.238;2023-07-13T06:14:41;17.90;99.90
1083;DHT22;530;51.448;7.238;2023-07-13T06:17:08;17.90;99.90
1083;DHT22;530;51.448;7.238;2023-07-13T06:19:34;17.90;99.90
1083;DHT22;530;51.448;7.238;2023-07-13T06:22:00;17.90;99.90
1083;DHT22;530;51.448;7.238;2023-07-13T06:24:26;17.80;99.90
1083;DHT22;530;51.448;7.238;2023-07-13T06:26:52;17.80;99.90
1083;DHT22;530;51.448;7.238;2023-07-13T06:29:18;17.90;99.90
1083;DHT22;530;51.448;7.238;2023-07-13T06:31:43;18.10;99.90
1083;DHT22;530;51.448;7.238;2023-07-13T06:34:09;18.20;99.90
1083;DHT22;530;51.448;7.238;2023-07-13T06:36:35;18.50;99.90
1083;DHT22;530;51.448;7.238;2023-07-13T06:39:02;18.70;99.90
1083;DHT22;530;51.448;7.238;2023-07-13T06:41:28;18.90;99.90
1083;DHT22;530;51.448;7.238;2023-07-13T06:43:53;19.10;99.90
1083;DHT22;530;51.448;7.238;2023-07-13T06:46:22;19.30;99.90
1083;DHT22;530;51.448;7.238;2023-07-13T06:48:48;19.30;99.90
1083;DHT22;530;51.448;7.238;2023-07-13T06:51:14;19.40;99.90
1083;DHT22;530;51.448;7.238;2023-07-13T06:53:40;19.50;99.90
1083;DHT22;530;51.448;7.238;2023-07-13T06:56:06;19.60;99.90
1083;DHT22;530;51.448;7.238;2023-07-13T06:58:34;19.80;99.90
1083;DHT22;530;51.448;7.238;2023-07-13T07:01:00;19.90;99.90
1083;DHT22;530;51.448;7.238;2023-07-13T07:03:26;19.80;99.90
1083;DHT22;530;51.448;7.238;2023-07-13T07:05:51;19.90;99.90
1083;DHT22;530;51.448;7.238;2023-07-13T07:08:17;20.00;99.90
1083;DHT22;530;51.448;7.238;2023-07-13T07:10:43;20.20;99.90
1083;DHT22;530;51.448;7.238;2023-07-13T07:13:09;20.10;99.90
1083;DHT22;530;51.448;7.238;2023-07-13T07:15:35;20.20;99.90
1083;DHT22;530;51.448;7.238;2023-07-13T07:18:01;20.20;99.90
1083;DHT22;530;51.448;7.238;2023-07-13T07:20:27;20.30;99.90
1083;DHT22;530;51.448;7.238;2023-07-13T07:22:53;20.30;99.90
1083;DHT22;530;51.448;7.238;2023-07-13T07:25:19;20.30;99.90
1083;DHT22;530;51.448;7.238;2023-07-13T07:27:45;20.40;99.90
1083;DHT22;530;51.448;7.238;2023-07-13T07:30:12;20.30;99.90
1083;DHT22;530;51.448;7.238;2023-07-13T07:32:37;20.40;99.90
1083;DHT22;530;51.448;7.238;2023-07-13T07:35:03;20.50;99.90
1083;DHT22;530;51.448;7.238;2023-07-13T07:37:29;20.40;99.90
1083;DHT22;530;51.448;7.238;2023-07-13T07:39:55;20.20;99.90
1083;DHT22;530;51.448;7.238;2023-07-13T07:42:20;20.20;99.90
1083;DHT22;530;51.448;7.238;2023-07-13T07:44:46;20.20;99.90
1083;DHT22;530;51.448;7.238;2023-07-13T07:47:12;20.20;99.90
1083;DHT22;530;51.448;7.238;2023-07-13T07:49:37;20.30;99.90
1083;DHT22;530;51.448;7.238;2023-07-13T07:52:04;20.40;99.90
1083;DHT22;530;51.448;7.238;2023-07-13T07:54:29;20.40;99.90
1083;DHT22;530;51.448;7.238;2023-07-13T07:56:55;20.30;99.90
1083;DHT22;530;51.448;7.238;2023-07-13T07:59:21;20.20;99.90
1083;DHT22;530;51.448;7.238;2023-07-13T08:01:46;20.00;99.90
1083;DHT22;530;51.448;7.238;2023-07-13T08:04:13;20.00;99.90
1083;DHT22;530;51.448;7.238;2023-07-13T08:06:39;19.90;99.90
1083;DHT22;530;51.448;7.238;2023-07-13T08:09:04;19.80;99.90
1083;DHT22;530;51.448;7.238;2023-07-13T08:11:31;19.80;99.90
1083;DHT22;530;51.448;7.238;2023-07-13T08:13:57;19.80;99.90
1083;DHT22;530;51.448;7.238;2023-07-13T08:16:23;19.70;99.90
1083;DHT22;530;51.448;7.238;2023-07-13T08:18:49;19.70;99.90
1083;DHT22;530;51.448;7.238;2023-07-13T08:21:14;19.50;99.90
1083;DHT22;530;51.448;7.238;2023-07-13T08:23:40;19.50;99.90
1083;DHT22;530;51.448;7.238;2023-07-13T08:26:06;19.60;99.90
1083;DHT22;530;51.448;7.238;2023-07-13T08:28:34;19.60;99.90
1083;DHT22;530;51.448;7.238;2023-07-13T08:31:04;19.60;99.90
1083;DHT22;530;51.448;7.238;2023-07-13T08:33:30;19.70;99.90
1083;DHT22;530;51.448;7.238;2023-07-13T08:35:56;19.60;99.90
1083;DHT22;530;51.448;7.238;2023-07-13T08:38:22;19.70;99.90
1083;DHT22;530;51.448;7.238;2023-07-13T08:40:53;19.80;99.90
1083;DHT22;530;51.448;7.238;2023-07-13T08:43:27;19.80;99.90
1083;DHT22;530;51.448;7.238;2023-07-13T08:46:00;19.90;99.90
1083;DHT22;530;51.448;7.238;2023-07-13T08:48:32;20.00;99.90
1083;DHT22;530;51.448;7.238;2023-07-13T08:51:09;20.00;99.90
1083;DHT22;530;51.448;7.238;2023-07-13T08:53:39;20.00;99.90
1083;DHT22;530;51.448;7.238;2023-07-13T08:56:11;20.10;99.90
1083;DHT22;530;51.448;7.238;2023-07-13T08:58:41;20.10;99.90
1083;DHT22;530;51.448;7.238;2023-07-13T09:01:40;20.20;99.90
1083;DHT22;530;51.448;7.238;2023-07-13T09:04:09;20.00;99.90
1083;DHT22;530;51.448;7.238;2023-07-13T09:14:49;20.30;99.90
1083;DHT22;530;51.448;7.238;2023-07-13T09:17:23;20.40;99.90
1083;DHT22;530;51.448;7.238;2023-07-13T09:20:23;20.40;99.90
1083;DHT22;530;51.448;7.238;2023-07-13T09:22:51;20.50;99.90
1083;DHT22;530;51.448;7.238;2023-07-13T09:25:31;20.50;99.90
1083;DHT22;530;51.448;7.238;2023-07-13T09:28:02;20.70;99.90
1083;DHT22;530;51.448;7.238;2023-07-13T09:33:07;20.80;99.90
1083;DHT22;530;51.448;7.238;2023-07-13T09:35:34;20.80;99.90
1083;DHT22;530;51.448;7.238;2023-07-13T09:38:21;20.90;99.90
1083;DHT22;530;51.448;7.238;2023-07-13T09:43:25;21.10;99.90
1083;DHT22;530;51.448;7.238;2023-07-13T09:45:52;21.20;99.90
1083;DHT22;530;51.448;7.238;2023-07-13T09:48:18;21.20;99.90
1083;DHT22;530;51.448;7.238;2023-07-13T09:50:45;21.40;99.90
1083;DHT22;530;51.448;7.238;2023-07-13T09:53:17;21.50;99.90
1083;DHT22;530;51.448;7.238;2023-07-13T09:55:45;21.70;99.90
1083;DHT22;530;51.448;7.238;2023-07-13T09:58:18;21.70;99.90
1083;DHT22;530;51.448;7.238;2023-07-13T10:00:57;21.80;99.90
1083;DHT22;530;51.448;7.238;2023-07-13T10:03:26;21.90;99.90
1083;DHT22;530;51.448;7.238;2023-07-13T10:05:53;22.00;99.90
1083;DHT22;530;51.448;7.238;2023-07-13T10:08:30;22.00;99.90
1083;DHT22;530;51.448;7.238;2023-07-13T10:13:42;22.10;99.90
1083;DHT22;530;51.448;7.238;2023-07-13T10:16:09;22.30;99.90
1083;DHT22;530;51.448;7.238;2023-07-13T10:18:41;22.40;99.90
1083;DHT22;530;51.448;7.238;2023-07-13T10:21:21;22.40;99.90
1083;DHT22;530;51.448;7.238;2023-07-13T10:23:57;22.40;99.90
1083;DHT22;530;51.448;7.238;2023-07-13T10:26:29;22.20;99.90
1083;DHT22;530;51.448;7.238;2023-07-13T10:29:01;22.30;99.90
1083;DHT22;530;51.448;7.238;2023-07-13T10:31:30;22.30;99.90
1083;DHT22;530;51.448;7.238;2023-07-13T10:33:56;22.30;99.90
1083;DHT22;530;51.448;7.238;2023-07-13T10:36:26;22.30;99.90
1083;DHT22;530;51.448;7.238;2023-07-13T10:38:54;22.30;99.90
1083;DHT22;530;51.448;7.238;2023-07-13T10:41:24;22.20;99.90
1083;DHT22;530;51.448;7.238;2023-07-13T10:43:52;22.10;99.90
1083;DHT22;530;51.448;7.238;2023-07-13T10:46:21;21.90;99.90
1083;DHT22;530;51.448;7.238;2023-07-13T10:48:52;21.90;99.90
1083;DHT22;530;51.448;7.238;2023-07-13T10:51:19;21.90;99.90
1083;DHT22;530;51.448;7.238;2023-07-13T10:53:47;21.90;99.90
1083;DHT22;530;51.448;7.238;2023-07-13T10:56:24;21.90;99.90
1083;DHT22;530;51.448;7.238;2023-07-13T11:04:18;21.60;99.90
1083;DHT22;530;51.448;7.238;2023-07-13T11:06:47;21.50;99.90
1083;DHT22;530;51.448;7.238;2023-07-13T11:09:35;21.70;99.90
1083;DHT22;530;51.448;7.238;2023-07-13T11:12:28;21.90;99.90
1083;DHT22;530;51.448;7.238;2023-07-13T11:19:54;22.20;99.90
1083;DHT22;530;51.448;7.238;2023-07-13T11:25:35;22.40;99.90
1083;DHT22;530;51.448;7.238;2023-07-13T11:30:38;22.20;99.90
1083;DHT22;530;51.448;7.238;2023-07-13T11:33:24;22.30;99.90
1083;DHT22;530;51.448;7.238;2023-07-13T11:36:04;22.50;99.90
1083;DHT22;530;51.448;7.238;2023-07-13T11:38:35;22.60;99.90
1083;DHT22;530;51.448;7.238;2023-07-13T11:41:25;22.80;99.90
1083;DHT22;530;51.448;7.238;2023-07-13T11:44:01;22.80;99.90
1083;DHT22;530;51.448;7.238;2023-07-13T11:46:28;22.80;99.90
1083;DHT22;530;51.448;7.238;2023-07-13T11:48:54;22.70;99.90
1083;DHT22;530;51.448;7.238;2023-07-13T11:51:32;22.70;99.90
1083;DHT22;530;51.448;7.238;2023-07-13T11:54:03;22.90;99.90
1083;DHT22;530;51.448;7.238;2023-07-13T11:56:28;23.00;99.90
1083;DHT22;530;51.448;7.238;2023-07-13T11:58:56;23.10;99.90
1083;DHT22;530;51.448;7.238;2023-07-13T12:01:29;23.10;99.90
1083;DHT22;530;51.448;7.238;2023-07-13T12:04:01;23.20;99.90
1083;DHT22;530;51.448;7.238;2023-07-13T12:06:33;23.30;99.90
1083;DHT22;530;51.448;7.238;2023-07-13T12:09:09;23.20;99.80
1083;DHT22;530;51.448;7.238;2023-07-13T12:11:41;23.20;99.30
1083;DHT22;530;51.448;7.238;2023-07-13T12:14:15;23.10;99.40
1083;DHT22;530;51.448;7.238;2023-07-13T12:16:41;23.10;99.00
1083;DHT22;530;51.448;7.238;2023-07-13T12:19:23;23.00;98.30
1083;DHT22;530;51.448;7.238;2023-07-13T12:21:52;23.00;98.90
1083;DHT22;530;51.448;7.238;2023-07-13T12:24:20;23.00;98.20
1083;DHT22;530;51.448;7.238;2023-07-13T12:26:55;23.10;99.40
1083;DHT22;530;51.448;7.238;2023-07-13T12:29:23;23.30;98.70
1083;DHT22;530;51.448;7.238;2023-07-13T12:31:50;23.30;98.30
1083;DHT22;530;51.448;7.238;2023-07-13T12:34:20;23.50;98.40
1083;DHT22;530;51.448;7.238;2023-07-13T12:37:00;23.60;98.70
1083;DHT22;530;51.448;7.238;2023-07-13T12:39:38;23.70;98.50
1083;DHT22;530;51.448;7.238;2023-07-13T12:42:27;23.80;97.00
1083;DHT22;530;51.448;7.238;2023-07-13T12:45:03;23.80;97.70
1083;DHT22;530;51.448;7.238;2023-07-13T12:47:30;23.80;96.70
1083;DHT22;530;51.448;7.238;2023-07-13T12:49:58;23.70;96.10
1083;DHT22;530;51.448;7.238;2023-07-13T12:52:32;23.70;96.80
1083;DHT22;530;51.448;7.238;2023-07-13T12:57:29;23.30;97.00
1083;DHT22;530;51.448;7.238;2023-07-13T12:59:55;23.20;97.30
1083;DHT22;530;51.448;7.238;2023-07-13T13:02:30;23.40;99.20
1083;DHT22;530;51.448;7.238;2023-07-13T13:04:57;23.50;97.70
1083;DHT22;530;51.448;7.238;2023-07-13T13:07:24;23.50;98.00
1083;DHT22;530;51.448;7.238;2023-07-13T13:09:50;23.60;97.60
1083;DHT22;530;51.448;7.238;2023-07-13T13:12:16;23.60;96.60
1083;DHT22;530;51.448;7.238;2023-07-13T13:14:43;23.70;97.00
1083;DHT22;530;51.448;7.238;2023-07-13T13:17:19;23.80;97.70
1083;DHT22;530;51.448;7.238;2023-07-13T13:19:45;23.80;97.00
1083;DHT22;530;51.448;7.238;2023-07-13T13:22:11;23.70;96.60
1083;DHT22;530;51.448;7.238;2023-07-13T13:24:37;23.60;96.20
1083;DHT22;530;51.448;7.238;2023-07-13T13:27:03;23.30;96.30
1083;DHT22;530;51.448;7.238;2023-07-13T13:29:31;23.10;96.30
1083;DHT22;530;51.448;7.238;2023-07-13T13:31:58;22.90;96.40
1083;DHT22;530;51.448;7.238;2023-07-13T13:34:25;22.80;96.30
1083;DHT22;530;51.448;7.238;2023-07-13T13:36:52;22.70;96.90
1083;DHT22;530;51.448;7.238;2023-07-13T13:39:34;22.60;97.50
1083;DHT22;530;51.448;7.238;2023-07-13T13:42:00;22.60;98.30
1083;DHT22;530;51.448;7.238;2023-07-13T13:44:26;22.60;99.90
1083;DHT22;530;51.448;7.238;2023-07-13T13:46:53;22.40;99.90
1083;DHT22;530;51.448;7.238;2023-07-13T13:49:22;22.20;99.90
1083;DHT22;530;51.448;7.238;2023-07-13T13:51:49;21.80;99.90
1083;DHT22;530;51.448;7.238;2023-07-13T13:54:17;21.60;99.90
1083;DHT22;530;51.448;7.238;2023-07-13T13:56:45;21.60;99.90
1083;DHT22;530;51.448;7.238;2023-07-13T13:59:11;21.40;99.90
1083;DHT22;530;51.448;7.238;2023-07-13T14:01:38;21.40;99.90
1083;DHT22;530;51.448;7.238;2023-07-13T14:04:05;21.30;99.90
1083;DHT22;530;51.448;7.238;2023-07-13T14:06:32;21.20;99.90
1083;DHT22;530;51.448;7.238;2023-07-13T14:09:00;21.20;99.90
1083;DHT22;530;51.448;7.238;2023-07-13T14:11:26;21.30;99.90
1083;DHT22;530;51.448;7.238;2023-07-13T14:13:57;21.20;99.90
1083;DHT22;530;51.448;7.238;2023-07-13T14:16:28;21.30;99.90
1083;DHT22;530;51.448;7.238;2023-07-13T14:18:55;21.50;99.90
1083;DHT22;530;51.448;7.238;2023-07-13T14:21:24;21.70;99.90
1083;DHT22;530;51.448;7.238;2023-07-13T14:23:50;21.70;99.90
1083;DHT22;530;51.448;7.238;2023-07-13T14:26:16;21.80;99.90
1083;DHT22;530;51.448;7.238;2023-07-13T14:28:45;21.50;99.90
1083;DHT22;530;51.448;7.238;2023-07-13T14:31:13;21.30;99.90
1083;DHT22;530;51.448;7.238;2023-07-13T14:33:39;21.10;99.90
1083;DHT22;530;51.448;7.238;2023-07-13T14:36:27;21.00;99.90
1083;DHT22;530;51.448;7.238;2023-07-13T14:38:55;20.70;99.90
1083;DHT22;530;51.448;7.238;2023-07-13T14:41:21;20.60;99.90
1083;DHT22;530;51.448;7.238;2023-07-13T14:43:47;20.50;99.90
1083;DHT22;530;51.448;7.238;2023-07-13T14:46:26;20.50;99.90
1083;DHT22;530;51.448;7.238;2023-07-13T14:48:55;20.60;99.90
1083;DHT22;530;51.448;7.238;2023-07-13T14:51:25;20.60;99.90
1083;DHT22;530;51.448;7.238;2023-07-13T14:53:50;20.70;99.90
1083;DHT22;530;51.448;7.238;2023-07-13T14:56:16;20.80;99.90
1083;DHT22;530;51.448;7.238;2023-07-13T14:58:42;20.80;99.90
1083;DHT22;530;51.448;7.238;2023-07-13T15:01:15;20.80;99.90
1083;DHT22;530;51.448;7.238;2023-07-13T15:03:45;20.60;99.90
1083;DHT22;530;51.448;7.238;2023-07-13T15:06:12;20.70;99.90
1083;DHT22;530;51.448;7.238;2023-07-13T15:08:39;20.70;99.90
1083;DHT22;530;51.448;7.238;2023-07-13T15:11:09;20.80;99.90
1083;DHT22;530;51.448;7.238;2023-07-13T15:13:39;20.90;99.90
1083;DHT22;530;51.448;7.238;2023-07-13T15:16:15;20.80;99.90
1083;DHT22;530;51.448;7.238;2023-07-13T15:18:42;20.80;99.90
1083;DHT22;530;51.448;7.238;2023-07-13T15:21:20;20.80;99.90
1083;DHT22;530;51.448;7.238;2023-07-13T15:23:46;20.80;99.90
1083;DHT22;530;51.448;7.238;2023-07-13T15:26:14;20.90;99.90
1083;DHT22;530;51.448;7.238;2023-07-13T15:28:42;20.90;99.90
1083;DHT22;530;51.448;7.238;2023-07-13T15:31:24;21.00;99.90
1083;DHT22;530;51.448;7.238;2023-07-13T15:33:51;21.00;99.90
1083;DHT22;530;51.448;7.238;2023-07-13T15:36:21;21.00;99.90
1083;DHT22;530;51.448;7.238;2023-07-13T15:38:48;20.90;99.90
1083;DHT22;530;51.448;7.238;2023-07-13T15:41:24;20.90;99.90
1083;DHT22;530;51.448;7.238;2023-07-13T15:43:57;20.90;99.90
1083;DHT22;530;51.448;7.238;2023-07-13T15:46:24;20.90;99.90
1083;DHT22;530;51.448;7.238;2023-07-13T15:48:52;20.80;99.90
1083;DHT22;530;51.448;7.238;2023-07-13T15:51:30;20.80;99.90
1083;DHT22;530;51.448;7.238;2023-07-13T15:54:02;20.70;99.90
1083;DHT22;530;51.448;7.238;2023-07-13T15:56:32;20.60;99.90
1083;DHT22;530;51.448;7.238;2023-07-13T15:58:59;20.60;99.90
1083;DHT22;530;51.448;7.238;2023-07-13T16:01:26;20.50;99.90
1083;DHT22;530;51.448;7.238;2023-07-13T16:03:52;20.20;99.90
1083;DHT22;530;51.448;7.238;2023-07-13T16:06:34;20.10;99.90
1083;DHT22;530;51.448;7.238;2023-07-13T16:09:02;20.00;99.90
1083;DHT22;530;51.448;7.238;2023-07-13T16:11:35;20.00;99.90
1083;DHT22;530;51.448;7.238;2023-07-13T16:14:01;19.90;99.90
1083;DHT22;530;51.448;7.238;2023-07-13T16:16:29;19.80;99.90
1083;DHT22;530;51.448;7.238;2023-07-13T16:18:57;19.80;99.90
1083;DHT22;530;51.448;7.238;2023-07-13T16:21:29;19.70;99.90
1083;DHT22;530;51.448;7.238;2023-07-13T16:23:55;19.60;99.90
1083;DHT22;530;51.448;7.238;2023-07-13T16:28:54;19.50;99.90
1083;DHT22;530;51.448;7.238;2023-07-13T16:31:32;19.30;99.90
1083;DHT22;530;51.448;7.238;2023-07-13T16:34:00;19.10;99.90
1083;DHT22;530;51.448;7.238;2023-07-13T16:36:27;19.00;99.90
1083;DHT22;530;51.448;7.238;2023-07-13T16:38:54;18.90;99.90
1083;DHT22;530;51.448;7.238;2023-07-13T16:41:20;18.90;99.90
1083;DHT22;530;51.448;7.238;2023-07-13T16:43:46;18.90;99.90
1083;DHT22;530;51.448;7.238;2023-07-13T16:46:14;18.90;99.90
1083;DHT22;530;51.448;7.238;2023-07-13T16:48:43;18.90;99.90
1083;DHT22;530;51.448;7.238;2023-07-13T16:51:09;18.90;99.90
1083;DHT22;530;51.448;7.238;2023-07-13T16:53:35;18.90;99.90
1083;DHT22;530;51.448;7.238;2023-07-13T16:56:02;18.90;99.90
1083;DHT22;530;51.448;7.238;2023-07-13T16:58:31;18.90;99.90
1083;DHT22;530;51.448;7.238;2023-07-13T17:00:58;18.90;99.90
1083;DHT22;530;51.448;7.238;2023-07-13T17:03:24;18.90;99.90
1083;DHT22;530;51.448;7.238;2023-07-13T17:05:53;18.80;99.90